createdAt,value
2022-10-17T00:34:31.126Z,100
2022-10-17T00:44:31.789Z,100
2022-10-17T01:34:35.059Z,100
2022-10-17T02:24:37.622Z,100
2022-10-17T02:34:38.674Z,100
2022-10-17T03:04:40.812Z,100
2022-10-17T03:14:41.557Z,100
2022-10-17T03:24:41.849Z,100
2022-10-17T03:34:42.066Z,100
2022-10-17T04:04:43.289Z,100
2022-10-17T04:14:43.723Z,100
2022-10-17T04:34:44.526Z,100
2022-10-17T05:04:46.727Z,100
2022-10-17T05:14:47.543Z,100
2022-10-17T05:24:47.794Z,100
2022-10-17T05:34:48.627Z,100
2022-10-17T05:54:49.473Z,100
2022-10-17T06:04:50.217Z,100
2022-10-17T06:14:50.979Z,100
2022-10-17T06:24:51.378Z,100
2022-10-17T06:44:52.686Z,100
2022-10-17T06:54:53.370Z,100
2022-10-17T07:04:54.298Z,100
2022-10-17T07:24:56.007Z,100
2022-10-17T07:34:56.723Z,100
2022-10-17T07:44:57.075Z,100
2022-10-17T07:54:57.853Z,100
2022-10-17T08:14:59.085Z,100
2022-10-17T08:24:59.447Z,100
2022-10-17T08:35:00.379Z,100
2022-10-17T08:55:01.349Z,96
2022-10-17T09:15:02.599Z,91
2022-10-17T09:25:02.995Z,89
2022-10-17T09:35:03.129Z,89
2022-10-17T09:45:03.932Z,88
2022-10-17T09:55:04.490Z,89
2022-10-17T10:05:06.580Z,89
2022-10-17T10:15:05.818Z,89
2022-10-17T10:25:06.115Z,88
2022-10-17T10:35:06.780Z,87
2022-10-17T10:55:07.798Z,87
2022-10-17T11:05:08.212Z,87
2022-10-17T11:15:08.400Z,87
2022-10-17T11:25:08.539Z,87
2022-10-17T11:35:08.897Z,89
2022-10-17T11:45:09.537Z,93
2022-10-17T11:55:09.764Z,95
2022-10-17T12:05:10.426Z,96
2022-10-17T12:15:10.791Z,97
2022-10-17T12:25:11.545Z,97
2022-10-17T12:35:11.874Z,97
2022-10-17T12:45:12.539Z,98
2022-10-17T12:55:13.884Z,98
2022-10-17T13:25:15.128Z,99
2022-10-17T13:35:15.846Z,99
2022-10-17T13:45:16.496Z,98
2022-10-17T13:55:17.857Z,96
2022-10-17T14:05:19.414Z,96
2022-10-17T14:15:18.800Z,96
2022-10-17T14:25:19.631Z,95
2022-10-17T14:35:40.954Z,95
2022-10-17T14:45:23.545Z,96
2022-10-17T14:55:21.383Z,96
2022-10-17T15:05:22.282Z,96
2022-10-17T15:15:22.911Z,97
2022-10-17T15:25:23.426Z,97
2022-10-17T15:35:24.050Z,98
2022-10-17T15:45:24.962Z,98
2022-10-17T16:05:26.260Z,99
2022-10-17T16:15:27.131Z,100
2022-10-17T16:35:29.602Z,100
2022-10-17T16:55:29.645Z,100
2022-10-17T17:05:30.614Z,100
2022-10-17T17:15:31.255Z,100
2022-10-17T17:25:31.456Z,100
2022-10-17T17:35:32.492Z,100
2022-10-17T17:45:32.862Z,100
2022-10-17T17:55:33.089Z,100
2022-10-17T18:05:33.835Z,100
2022-10-17T18:15:34.529Z,100
2022-10-17T18:25:35.243Z,100
2022-10-17T18:45:36.206Z,100
2022-10-17T19:05:37.602Z,100
2022-10-17T19:15:38.583Z,100
2022-10-17T19:25:38.820Z,100
2022-10-17T19:45:39.749Z,100
2022-10-17T19:55:39.974Z,100
2022-10-17T20:05:40.190Z,100
2022-10-17T20:15:41.188Z,100
2022-10-17T20:25:42.195Z,100
2022-10-17T20:45:50.453Z,100
2022-10-17T20:55:43.827Z,100
2022-10-17T21:05:44.343Z,100
2022-10-17T21:15:44.773Z,100
2022-10-17T21:25:45.306Z,100
2022-10-17T21:35:46.101Z,100
2022-10-17T21:45:46.583Z,100
2022-10-17T21:55:47.462Z,100
2022-10-17T22:05:48.212Z,100
2022-10-17T22:25:50.463Z,100
2022-10-17T22:35:50.724Z,100
2022-10-17T22:45:51.418Z,100
2022-10-17T22:55:52.010Z,100
2022-10-17T23:15:52.578Z,100
2022-10-17T23:25:53.568Z,100
